Terminal Aerodrome Forecast
Issued by NWS

Home | Current Version | Previous Version | Text Only | Print | Product List | Glossary Off
Versions: 1 2 3 4 5 6 7 8 9 10 11 12 13 14 15 16 17 18 19 20

000
FTUS43 KGRB 212339
TAFAUW
TAF
KAUW 212339Z 2200/2224 23011G15KT P6SM VCSH SCT009 BKN020
      TEMPO 2200/2204 5SM -RA BR BKN009
     FM220400 26008KT P6SM VCSH OVC009
     FM221200 26009KT P6SM OVC010
     FM221600 26010G20KT P6SM BKN020
     FM221900 26011G20KT P6SM BKN040
     FM222100 26009KT P6SM BKN040=

USA.gov is the U.S. government's official web portal to all federal, state and local government web resources and services.